createdAt,value
2022-10-19T06:19:43.156Z,100.00
2022-10-19T06:22:20.817Z,100.00
2022-10-19T06:24:57.815Z,100.00
2022-10-19T06:27:36.291Z,100.00
2022-10-19T06:30:15.207Z,100.00
2022-10-19T06:32:52.538Z,100.00
2022-10-19T06:35:31.900Z,100.00
2022-10-19T06:38:08.900Z,100.00
2022-10-19T06:40:45.587Z,100.00
2022-10-19T06:43:22.564Z,100.00
2022-10-19T06:45:59.529Z,100.00
2022-10-19T06:48:36.900Z,100.00
2022-10-19T06:51:16.209Z,100.00
2022-10-19T06:53:56.615Z,100.00
2022-10-19T06:56:33.690Z,100.00
2022-10-19T06:59:13.502Z,100.00
2022-10-19T07:01:51.535Z,100.00
2022-10-19T07:04:28.642Z,100.00
2022-10-19T07:07:08.009Z,100.00
2022-10-19T07:09:45.245Z,100.00
2022-10-19T07:12:22.067Z,100.00
2022-10-19T07:14:59.355Z,100.00
2022-10-19T07:17:36.329Z,100.00
2022-10-19T07:20:14.920Z,100.00
2022-10-19T07:22:54.530Z,100.00
2022-10-19T07:25:31.669Z,100.00
2022-10-19T07:28:08.898Z,100.00
2022-10-19T07:30:46.579Z,100.00
2022-10-19T07:33:23.206Z,100.00
2022-10-19T07:36:04.329Z,100.00
2022-10-19T07:38:44.306Z,100.00
2022-10-19T07:41:26.207Z,100.00
2022-10-19T07:44:04.544Z,100.00
2022-10-19T07:46:42.853Z,100.00
2022-10-19T07:49:21.080Z,100.00
2022-10-19T07:51:59.284Z,100.00
2022-10-19T07:54:38.667Z,100.00
2022-10-19T07:57:15.815Z,100.00
2022-10-19T07:59:52.574Z,100.00
2022-10-19T08:02:39.449Z,100.00
2022-10-19T08:05:26.362Z,100.00
2022-10-19T08:08:03.369Z,100.00
2022-10-19T08:10:42.711Z,100.00
2022-10-19T08:13:19.670Z,100.00
2022-10-19T08:15:56.440Z,100.00
2022-10-19T08:18:34.030Z,100.00
2022-10-19T08:21:10.855Z,100.00
2022-10-19T08:23:47.943Z,100.00
2022-10-19T08:26:27.464Z,100.00
2022-10-19T08:29:04.906Z,100.00
2022-10-19T08:31:43.045Z,100.00
2022-10-19T08:34:20.763Z,100.00
2022-10-19T08:36:57.593Z,100.00
2022-10-19T08:39:35.063Z,100.00
2022-10-19T08:42:20.352Z,100.00
2022-10-19T08:48:33.275Z,100.00
2022-10-19T08:51:10.741Z,100.00
2022-10-19T08:53:55.791Z,100.00
2022-10-19T08:56:50.579Z,100.00
2022-10-19T08:59:43.715Z,100.00
2022-10-19T09:02:33.443Z,100.00
2022-10-19T09:05:19.797Z,100.00
2022-10-19T09:07:57.981Z,100.00
2022-10-19T09:10:38.587Z,100.00
2022-10-19T09:13:29.205Z,100.00
2022-10-19T09:16:19.078Z,100.00
2022-10-19T09:18:56.388Z,100.00
2022-10-19T09:21:47.286Z,100.00
2022-10-19T09:24:35.240Z,100.00
2022-10-19T09:27:21.876Z,100.00
2022-10-19T09:30:02.868Z,100.00
2022-10-19T09:32:43.367Z,100.00
2022-10-19T09:35:32.058Z,100.00
2022-10-19T09:38:10.388Z,100.00
2022-10-19T09:40:48.294Z,98.94
2022-10-19T09:43:25.778Z,90.91
2022-10-19T09:46:18.749Z,87.03
2022-10-19T09:49:02.369Z,84.60
2022-10-19T09:51:54.136Z,85.52
2022-10-19T09:54:38.027Z,85.15
2022-10-19T09:57:24.918Z,81.94
2022-10-19T10:00:01.999Z,78.58
2022-10-19T10:02:41.456Z,76.69
2022-10-19T10:05:21.997Z,75.57
2022-10-19T10:07:59.827Z,74.88
2022-10-19T10:10:46.127Z,76.90
2022-10-19T10:13:28.387Z,79.24
2022-10-19T10:16:08.086Z,82.38
2022-10-19T10:18:58.040Z,86.93
2022-10-19T10:21:49.157Z,91.69
2022-10-19T10:24:28.525Z,93.13
2022-10-19T10:27:08.866Z,92.89
2022-10-19T10:29:59.416Z,94.99
2022-10-19T10:32:44.407Z,90.80
2022-10-19T10:35:28.716Z,89.51
2022-10-19T10:38:21.528Z,87.43
2022-10-19T10:41:03.189Z,82.94
2022-10-19T10:43:52.996Z,80.98
2022-10-19T10:46:35.816Z,81.96
2022-10-19T10:49:23.765Z,82.04
2022-10-19T10:52:03.755Z,82.84
2022-10-19T10:54:43.228Z,82.35
2022-10-19T10:57:24.445Z,83.22
2022-10-19T11:00:08.436Z,81.41
2022-10-19T11:02:52.919Z,80.81
2022-10-19T11:05:34.232Z,81.84
2022-10-19T11:08:22.101Z,77.88
2022-10-19T11:11:10.032Z,76.59
2022-10-19T11:13:53.948Z,77.61
2022-10-19T11:16:37.156Z,78.77
2022-10-19T11:19:18.761Z,81.15
2022-10-19T11:22:06.296Z,79.88
2022-10-19T11:24:59.494Z,78.14
2022-10-19T11:27:53.769Z,76.09
2022-10-19T11:30:34.082Z,75.99
2022-10-19T11:33:20.813Z,77.96
2022-10-19T11:36:01.631Z,77.92
2022-10-19T11:38:55.714Z,78.79
2022-10-19T11:41:41.765Z,75.18
2022-10-19T11:44:42.375Z,75.63
2022-10-19T11:47:44.215Z,75.57
2022-10-19T11:50:37.794Z,75.87
2022-10-19T11:53:27.860Z,76.23
2022-10-19T11:56:12.839Z,82.20
2022-10-19T11:59:05.909Z,87.59
2022-10-19T12:01:59.924Z,89.92
2022-10-19T12:04:55.784Z,87.81
2022-10-19T12:08:01.899Z,85.71
2022-10-19T12:10:48.888Z,86.88
2022-10-19T12:13:34.899Z,87.91
2022-10-19T12:16:14.550Z,89.16
2022-10-19T12:18:58.769Z,89.35
2022-10-19T12:21:41.080Z,89.76
2022-10-19T12:24:21.800Z,87.67
2022-10-19T12:27:00.424Z,86.54
2022-10-19T12:29:42.970Z,86.21
2022-10-19T12:32:27.019Z,85.97
2022-10-19T12:35:20.911Z,86.05
2022-10-19T12:38:07.521Z,85.46
2022-10-19T12:40:53.898Z,83.63
2022-10-19T12:43:42.096Z,80.07
2022-10-19T12:46:32.610Z,77.66
2022-10-19T12:49:46.435Z,70.98
2022-10-19T12:52:44.793Z,69.99
2022-10-19T12:55:35.219Z,69.02
2022-10-19T12:58:26.202Z,69.49
2022-10-19T13:01:05.728Z,69.54
2022-10-19T13:03:47.339Z,69.30
2022-10-19T13:06:37.232Z,68.89
2022-10-19T13:09:35.131Z,65.82
2022-10-19T13:12:32.342Z,63.69
2022-10-19T13:15:30.071Z,64.80
2022-10-19T13:18:08.530Z,62.69
2022-10-19T13:21:02.454Z,61.29
2022-10-19T13:23:45.640Z,61.22
2022-10-19T13:26:36.969Z,60.81
2022-10-19T13:29:29.814Z,61.68
2022-10-19T13:32:47.380Z,62.32
2022-10-19T13:35:35.753Z,64.55
2022-10-19T13:38:29.004Z,67.29
2022-10-19T13:41:26.627Z,68.40
2022-10-19T13:44:22.070Z,70.16
2022-10-19T13:47:40.854Z,71.05
2022-10-19T13:50:35.631Z,73.06
2022-10-19T13:53:31.889Z,79.13
2022-10-19T13:56:40.247Z,83.67
2022-10-19T14:00:07.553Z,89.13
2022-10-19T14:03:20.982Z,92.33
2022-10-19T14:06:21.324Z,93.61
2022-10-19T14:09:49.701Z,96.19
2022-10-19T14:12:29.450Z,98.93
2022-10-19T14:15:25.202Z,100.00
2022-10-19T14:18:05.830Z,100.00
2022-10-19T14:20:43.503Z,100.00
2022-10-19T14:23:23.521Z,100.00
2022-10-19T14:26:02.752Z,100.00
2022-10-19T14:28:40.467Z,100.00
2022-10-19T14:31:25.608Z,100.00
2022-10-19T14:34:06.080Z,100.00
2022-10-19T14:36:48.297Z,100.00
2022-10-19T14:39:35.389Z,100.00
2022-10-19T14:42:14.891Z,100.00
2022-10-19T14:44:51.960Z,100.00
2022-10-19T14:47:31.241Z,99.45
2022-10-19T14:50:10.155Z,97.17
2022-10-19T14:52:47.114Z,95.88
2022-10-19T14:55:25.254Z,95.77
2022-10-19T14:58:02.354Z,95.92
2022-10-19T15:00:40.223Z,96.75
2022-10-19T15:03:27.424Z,96.58
2022-10-19T15:06:08.885Z,97.34
2022-10-19T15:08:49.760Z,96.99
2022-10-19T15:11:32.116Z,97.23
2022-10-19T15:14:16.369Z,98.45
2022-10-19T15:16:57.600Z,98.11
2022-10-19T15:19:45.129Z,97.49
2022-10-19T15:22:26.888Z,98.34
2022-10-19T15:25:33.197Z,98.38
2022-10-19T15:28:39.117Z,98.71
2022-10-19T15:31:23.927Z,100.00
2022-10-19T15:34:05.599Z,100.00
2022-10-19T15:36:59.214Z,100.00
2022-10-19T15:39:42.109Z,100.00
2022-10-19T15:42:41.249Z,100.00
2022-10-19T15:45:38.447Z,100.00
2022-10-19T15:48:31.858Z,100.00
2022-10-19T15:51:28.747Z,100.00
2022-10-19T15:54:10.067Z,100.00
2022-10-19T15:56:50.677Z,100.00
2022-10-19T15:59:27.552Z,100.00
2022-10-19T16:02:05.739Z,100.00
2022-10-19T16:04:42.358Z,100.00
2022-10-19T16:07:24.127Z,100.00
2022-10-19T16:10:03.513Z,100.00
2022-10-19T16:12:41.165Z,100.00
2022-10-19T16:15:23.030Z,100.00
2022-10-19T16:18:03.345Z,100.00
2022-10-19T16:20:41.081Z,100.00
2022-10-19T16:23:21.886Z,100.00
2022-10-19T16:26:01.297Z,100.00
2022-10-19T16:28:39.609Z,100.00
2022-10-19T16:31:17.346Z,100.00
2022-10-19T16:33:55.667Z,100.00
2022-10-19T16:36:33.103Z,100.00
2022-10-19T16:39:10.714Z,100.00
2022-10-19T16:41:51.793Z,100.00
2022-10-19T16:44:29.408Z,100.00
2022-10-19T16:47:07.125Z,100.00
2022-10-19T16:49:46.662Z,100.00
2022-10-19T16:52:24.111Z,100.00
2022-10-19T16:55:01.783Z,100.00
2022-10-19T16:57:42.063Z,100.00
2022-10-19T17:00:20.080Z,100.00
2022-10-19T17:02:57.297Z,100.00
2022-10-19T17:05:35.111Z,100.00
2022-10-19T17:08:14.115Z,100.00
2022-10-19T17:10:52.905Z,100.00
2022-10-19T17:13:32.986Z,100.00
2022-10-19T17:16:14.094Z,100.00
2022-10-19T17:18:53.120Z,100.00
2022-10-19T17:21:37.798Z,100.00
2022-10-19T17:24:22.222Z,100.00
2022-10-19T17:27:04.628Z,100.00
2022-10-19T17:29:46.135Z,100.00
2022-10-19T17:32:25.424Z,100.00
2022-10-19T17:35:04.434Z,100.00
2022-10-19T17:37:44.384Z,100.00
2022-10-19T17:40:22.177Z,100.00
2022-10-19T17:43:00.244Z,100.00
2022-10-19T17:45:40.903Z,100.00
2022-10-19T17:48:18.613Z,100.00
2022-10-19T17:51:02.143Z,100.00
2022-10-19T17:53:40.483Z,100.00
2022-10-19T17:56:20.591Z,100.00
2022-10-19T17:59:01.033Z,100.00
2022-10-19T18:01:41.904Z,100.00
2022-10-19T18:04:19.818Z,100.00
2022-10-19T18:06:58.758Z,100.00
2022-10-19T18:09:36.997Z,100.00
2022-10-19T18:12:16.296Z,100.00
2022-10-19T18:14:56.924Z,100.00
2022-10-19T18:17:37.275Z,100.00
2022-10-19T18:20:15.875Z,100.00
2022-10-19T18:22:54.392Z,100.00
2022-10-19T18:25:53.065Z,100.00
2022-10-19T18:28:34.112Z,100.00
2022-10-19T18:31:14.593Z,100.00
2022-10-19T18:34:01.326Z,100.00
2022-10-19T18:36:39.544Z,100.00
2022-10-19T18:39:19.426Z,100.00
2022-10-19T18:41:59.397Z,100.00
2022-10-19T18:44:37.710Z,100.00
2022-10-19T18:47:16.302Z,100.00
2022-10-19T18:49:58.605Z,100.00
2022-10-19T18:52:39.714Z,100.00
2022-10-19T18:55:18.294Z,100.00
2022-10-19T18:57:56.204Z,100.00
2022-10-19T19:00:33.852Z,100.00
2022-10-19T19:03:11.588Z,100.00
2022-10-19T19:05:51.737Z,100.00
2022-10-19T19:08:29.862Z,100.00
2022-10-19T19:11:14.861Z,100.00
2022-10-19T19:13:54.550Z,100.00
2022-10-19T19:16:33.870Z,100.00
2022-10-19T19:19:17.431Z,100.00
2022-10-19T19:21:58.894Z,100.00
2022-10-19T19:24:37.058Z,100.00
2022-10-19T19:27:14.947Z,100.00
2022-10-19T19:29:54.315Z,100.00
2022-10-19T19:32:32.724Z,100.00
2022-10-19T19:35:11.377Z,100.00
2022-10-19T19:37:51.821Z,100.00
2022-10-19T19:40:32.246Z,100.00
2022-10-19T19:43:09.910Z,100.00
2022-10-19T19:45:51.089Z,100.00
2022-10-19T19:48:28.719Z,100.00
2022-10-19T19:51:06.859Z,100.00
2022-10-19T19:53:47.841Z,100.00
2022-10-19T19:56:26.052Z,100.00
2022-10-19T19:59:07.064Z,100.00
2022-10-19T20:01:46.809Z,100.00
2022-10-19T20:04:24.519Z,100.00
